sensor_id;sensor_type;location;lat;lon;timestamp;pressure;altitude;pressure_sealevel;temperature;humidity
58955;BME280;45815;52.334;5.024;2023-05-16T00:01:09;102020.91;;;9.08;100.00
58955;BME280;45815;52.334;5.024;2023-05-16T00:03:35;102015.59;;;9.07;100.00
58955;BME280;45815;52.334;5.024;2023-05-16T00:06:02;102019.03;;;9.06;100.00
58955;BME280;45815;52.334;5.024;2023-05-16T00:08:28;102022.56;;;9.06;100.00
58955;BME280;45815;52.334;5.024;2023-05-16T00:10:53;102026.97;;;9.07;100.00
58955;BME280;45815;52.334;5.024;2023-05-16T00:13:19;102026.88;;;9.06;100.00
58955;BME280;45815;52.334;5.024;2023-05-16T00:15:51;102020.63;;;9.02;100.00
58955;BME280;45815;52.334;5.024;2023-05-16T00:18:18;102030.47;;;9.08;100.00
58955;BME280;45815;52.334;5.024;2023-05-16T00:20:44;102022.56;;;9.06;100.00
58955;BME280;45815;52.334;5.024;2023-05-16T00:23:10;102013.34;;;8.95;100.00
58955;BME280;45815;52.334;5.024;2023-05-16T00:25:37;102025.59;;;8.96;100.00
58955;BME280;45815;52.334;5.024;2023-05-16T00:28:02;102020.56;;;9.01;100.00
58955;BME280;45815;52.334;5.024;2023-05-16T00:30:29;102032.75;;;9.00;100.00
58955;BME280;45815;52.334;5.024;2023-05-16T00:32:55;102018.56;;;8.95;100.00
58955;BME280;45815;52.334;5.024;2023-05-16T00:35:22;102021.53;;;9.03;100.00
58955;BME280;45815;52.334;5.024;2023-05-16T00:37:49;102027.66;;;9.03;100.00
58955;BME280;45815;52.334;5.024;2023-05-16T00:40:15;102028.41;;;9.01;100.00
58955;BME280;45815;52.334;5.024;2023-05-16T00:42:41;102031.13;;;9.02;100.00
58955;BME280;45815;52.334;5.024;2023-05-16T00:45:07;102029.47;;;9.04;100.00
58955;BME280;45815;52.334;5.024;2023-05-16T00:47:34;102024.16;;;9.03;100.00
58955;BME280;45815;52.334;5.024;2023-05-16T00:50:00;102022.41;;;9.03;100.00
58955;BME280;45815;52.334;5.024;2023-05-16T00:52:26;102018.69;;;8.98;100.00
58955;BME280;45815;52.334;5.024;2023-05-16T00:54:51;102029.19;;;8.98;100.00
58955;BME280;45815;52.334;5.024;2023-05-16T00:57:17;102029.19;;;8.98;100.00
58955;BME280;45815;52.334;5.024;2023-05-16T00:59:45;102011.53;;;8.94;100.00
58955;BME280;45815;52.334;5.024;2023-05-16T01:02:11;102034.81;;;9.07;100.00
58955;BME280;45815;52.334;5.024;2023-05-16T01:04:37;102029.72;;;9.11;100.00
58955;BME280;45815;52.334;5.024;2023-05-16T01:07:03;102030.63;;;9.11;100.00
58955;BME280;45815;52.334;5.024;2023-05-16T01:09:28;102033.25;;;9.11;100.00
58955;BME280;45815;52.334;5.024;2023-05-16T01:12:10;102025.59;;;8.96;100.00
58955;BME280;45815;52.334;5.024;2023-05-16T01:14:54;102021.06;;;8.92;100.00
58955;BME280;45815;52.334;5.024;2023-05-16T01:17:37;102032.47;;;8.94;100.00
58955;BME280;45815;52.334;5.024;2023-05-16T01:20:36;102033.31;;;8.93;100.00
58955;BME280;45815;52.334;5.024;2023-05-16T01:26:19;102032.22;;;8.88;100.00
58955;BME280;45815;52.334;5.024;2023-05-16T01:28:48;102027.25;;;8.94;100.00
58955;BME280;45815;52.334;5.024;2023-05-16T01:31:14;102021.13;;;8.94;100.00
58955;BME280;45815;52.334;5.024;2023-05-16T01:33:40;102029.06;;;8.95;100.00
58955;BME280;45815;52.334;5.024;2023-05-16T01:44:32;102038.13;;;8.84;100.00
58955;BME280;45815;52.334;5.024;2023-05-16T01:47:01;102034.88;;;8.90;100.00
58955;BME280;45815;52.334;5.024;2023-05-16T01:49:35;102032.81;;;8.82;100.00
58955;BME280;45815;52.334;5.024;2023-05-16T01:52:18;102023.63;;;8.71;100.00
58955;BME280;45815;52.334;5.024;2023-05-16T01:54:45;102040.75;;;8.84;100.00
58955;BME280;45815;52.334;5.024;2023-05-16T01:57:12;102031.94;;;8.82;100.00
58955;BME280;45815;52.334;5.024;2023-05-16T01:59:39;102033.78;;;8.84;100.00
58955;BME280;45815;52.334;5.024;2023-05-16T02:02:07;102040.88;;;8.87;100.00
58955;BME280;45815;52.334;5.024;2023-05-16T02:04:32;102042.56;;;8.85;100.00
58955;BME280;45815;52.334;5.024;2023-05-16T02:06:58;102042.69;;;8.88;100.00
58955;BME280;45815;52.334;5.024;2023-05-16T02:09:25;102048.63;;;8.84;100.00
58955;BME280;45815;52.334;5.024;2023-05-16T02:11:50;102048.69;;;8.85;100.00
58955;BME280;45815;52.334;5.024;2023-05-16T02:14:16;102046.75;;;8.81;100.00
58955;BME280;45815;52.334;5.024;2023-05-16T02:16:41;102042.41;;;8.82;100.00
58955;BME280;45815;52.334;5.024;2023-05-16T02:19:06;102047.81;;;8.85;100.00
58955;BME280;45815;52.334;5.024;2023-05-16T02:21:32;102042.56;;;8.85;100.00
58955;BME280;45815;52.334;5.024;2023-05-16T02:23:57;102044.34;;;8.86;100.00
58955;BME280;45815;52.334;5.024;2023-05-16T02:26:25;102044.22;;;8.83;100.00
58955;BME280;45815;52.334;5.024;2023-05-16T02:28:50;102040.00;;;8.86;100.00
58955;BME280;45815;52.334;5.024;2023-05-16T02:33:51;102039.88;;;8.83;100.00
58955;BME280;45815;52.334;5.024;2023-05-16T02:36:16;102044.22;;;8.83;100.00
58955;BME280;45815;52.334;5.024;2023-05-16T02:38:42;102047.81;;;8.85;100.00
58955;BME280;45815;52.334;5.024;2023-05-16T02:41:07;102051.22;;;8.84;100.00
58955;BME280;45815;52.334;5.024;2023-05-16T02:43:33;102052.97;;;8.83;100.00
58955;BME280;45815;52.334;5.024;2023-05-16T02:45:58;102054.53;;;8.80;100.00
58955;BME280;45815;52.334;5.024;2023-05-16T02:48:23;102050.22;;;8.80;100.00
58955;BME280;45815;52.334;5.024;2023-05-16T02:50:49;102064.88;;;8.77;100.00
58955;BME280;45815;52.334;5.024;2023-05-16T02:53:14;102063.09;;;8.76;100.00
58955;BME280;45815;52.334;5.024;2023-05-16T02:55:40;102063.69;;;8.70;100.00
58955;BME280;45815;52.334;5.024;2023-05-16T02:58:06;102069.81;;;8.71;100.00
58955;BME280;45815;52.334;5.024;2023-05-16T03:00:31;102069.81;;;8.71;100.00
58955;BME280;45815;52.334;5.024;2023-05-16T03:02:56;102064.56;;;8.71;100.00
58955;BME280;45815;52.334;5.024;2023-05-16T03:05:22;102066.25;;;8.69;100.00
58955;BME280;45815;52.334;5.024;2023-05-16T03:07:48;102062.66;;;8.66;100.00
58955;BME280;45815;52.334;5.024;2023-05-16T03:10:13;102065.19;;;8.65;100.00
58955;BME280;45815;52.334;5.024;2023-05-16T03:12:39;102064.31;;;8.64;100.00
58955;BME280;45815;52.334;5.024;2023-05-16T03:15:04;102067.81;;;8.65;100.00
58955;BME280;45815;52.334;5.024;2023-05-16T03:17:30;102066.09;;;8.65;100.00
58955;BME280;45815;52.334;5.024;2023-05-16T03:19:55;102066.03;;;8.64;100.00
58955;BME280;45815;52.334;5.024;2023-05-16T03:22:21;102074.91;;;8.68;100.00
58955;BME280;45815;52.334;5.024;2023-05-16T03:24:46;102069.59;;;8.66;100.00
58955;BME280;45815;52.334;5.024;2023-05-16T03:27:12;102067.91;;;8.66;100.00
58955;BME280;45815;52.334;5.024;2023-05-16T03:29:37;102071.53;;;8.70;100.00
58955;BME280;45815;52.334;5.024;2023-05-16T03:32:03;102075.97;;;8.71;100.00
58955;BME280;45815;52.334;5.024;2023-05-16T03:34:29;102077.06;;;8.76;100.00
58955;BME280;45815;52.334;5.024;2023-05-16T03:36:54;102074.44;;;8.76;100.00
58955;BME280;45815;52.334;5.024;2023-05-16T03:39:20;102071.84;;;8.76;100.00
58955;BME280;45815;52.334;5.024;2023-05-16T03:41:45;102075.34;;;8.77;100.00
58955;BME280;45815;52.334;5.024;2023-05-16T03:44:10;102074.44;;;8.76;100.00
58955;BME280;45815;52.334;5.024;2023-05-16T03:46:36;102081.53;;;8.79;100.00
58955;BME280;45815;52.334;5.024;2023-05-16T03:49:01;102068.16;;;8.73;100.00
58955;BME280;45815;52.334;5.024;2023-05-16T03:51:27;102082.22;;;8.75;100.00
58955;BME280;45815;52.334;5.024;2023-05-16T03:53:53;102077.88;;;8.75;100.00
58955;BME280;45815;52.334;5.024;2023-05-16T03:56:19;102090.22;;;8.78;100.00
58955;BME280;45815;52.334;5.024;2023-05-16T03:58:46;102084.97;;;8.78;100.00
58955;BME280;45815;52.334;5.024;2023-05-16T04:01:11;102087.59;;;8.78;100.00
58955;BME280;45815;52.334;5.024;2023-05-16T04:03:36;102086.66;;;8.76;100.00
58955;BME280;45815;52.334;5.024;2023-05-16T04:06:02;102078.78;;;8.76;100.00
58955;BME280;45815;52.334;5.024;2023-05-16T04:08:28;102080.44;;;8.74;100.00
58955;BME280;45815;52.334;5.024;2023-05-16T04:10:54;102085.72;;;8.75;100.00
58955;BME280;45815;52.334;5.024;2023-05-16T04:13:20;102085.69;;;8.74;100.00
58955;BME280;45815;52.334;5.024;2023-05-16T04:15:45;102092.00;;;8.79;100.00
58955;BME280;45815;52.334;5.024;2023-05-16T04:18:11;102089.53;;;8.82;100.00
58955;BME280;45815;52.334;5.024;2023-05-16T04:20:37;102089.75;;;8.86;100.00
58955;BME280;45815;52.334;5.024;2023-05-16T04:23:02;102094.97;;;8.86;100.00
58955;BME280;45815;52.334;5.024;2023-05-16T04:25:28;102101.72;;;8.81;100.00
58955;BME280;45815;52.334;5.024;2023-05-16T04:27:53;102094.75;;;8.82;100.00
58955;BME280;45815;52.334;5.024;2023-05-16T04:30:18;102097.47;;;8.83;100.00
58955;BME280;45815;52.334;5.024;2023-05-16T04:32:44;102103.50;;;8.82;100.00
58955;BME280;45815;52.334;5.024;2023-05-16T04:35:09;102101.72;;;8.81;100.00
58955;BME280;45815;52.334;5.024;2023-05-16T04:37:35;102109.66;;;8.83;100.00
58955;BME280;45815;52.334;5.024;2023-05-16T04:40:01;102110.81;;;8.90;100.00
58955;BME280;45815;52.334;5.024;2023-05-16T04:42:26;102108.38;;;8.93;100.00
58955;BME280;45815;52.334;5.024;2023-05-16T04:44:52;102119.19;;;9.00;100.00
58955;BME280;45815;52.334;5.024;2023-05-16T04:47:17;102107.28;;;9.07;100.00
58955;BME280;45815;52.334;5.024;2023-05-16T04:49:43;102110.03;;;9.10;100.00
58955;BME280;45815;52.334;5.024;2023-05-16T04:52:08;102110.09;;;9.12;100.00
58955;BME280;45815;52.334;5.024;2023-05-16T04:54:34;102106.94;;;9.19;100.00
58955;BME280;45815;52.334;5.024;2023-05-16T04:57:00;102118.38;;;9.21;100.00
58955;BME280;45815;52.334;5.024;2023-05-16T04:59:25;102111.53;;;9.24;100.00
58955;BME280;45815;52.334;5.024;2023-05-16T05:01:51;102121.41;;;9.30;100.00
58955;BME280;45815;52.334;5.024;2023-05-16T05:04:16;102116.28;;;9.33;100.00
58955;BME280;45815;52.334;5.024;2023-05-16T05:06:42;102117.94;;;9.31;100.00
58955;BME280;45815;52.334;5.024;2023-05-16T05:09:08;102118.22;;;9.37;100.00
58955;BME280;45815;52.334;5.024;2023-05-16T05:11:34;102117.56;;;9.41;100.00
58955;BME280;45815;52.334;5.024;2023-05-16T05:14:00;102122.06;;;9.45;100.00
58955;BME280;45815;52.334;5.024;2023-05-16T05:16:25;102116.22;;;9.51;100.00
58955;BME280;45815;52.334;5.024;2023-05-16T05:18:51;102124.13;;;9.52;100.00
58955;BME280;45815;52.334;5.024;2023-05-16T05:21:17;102117.25;;;9.55;100.00
58955;BME280;45815;52.334;5.024;2023-05-16T05:23:44;102111.75;;;9.48;100.00
58955;BME280;45815;52.334;5.024;2023-05-16T05:26:10;102116.28;;;9.52;100.00
58955;BME280;45815;52.334;5.024;2023-05-16T05:28:36;102135.09;;;9.63;100.00
58955;BME280;45815;52.334;5.024;2023-05-16T05:31:03;102131.72;;;9.66;100.00
58955;BME280;45815;52.334;5.024;2023-05-16T05:33:29;102130.06;;;9.68;100.00
58955;BME280;45815;52.334;5.024;2023-05-16T05:35:55;102124.13;;;9.72;100.00
58955;BME280;45815;52.334;5.024;2023-05-16T05:38:20;102138.31;;;9.77;100.00
58955;BME280;45815;52.334;5.024;2023-05-16T05:40:45;102136.78;;;9.82;100.00
58955;BME280;45815;52.334;5.024;2023-05-16T05:43:11;102131.03;;;9.91;100.00
58955;BME280;45815;52.334;5.024;2023-05-16T05:45:36;102138.03;;;9.90;100.00
58955;BME280;45815;52.334;5.024;2023-05-16T05:48:02;102135.59;;;9.95;100.00
58955;BME280;45815;52.334;5.024;2023-05-16T05:50:28;102142.56;;;9.94;100.00
58955;BME280;45815;52.334;5.024;2023-05-16T05:52:54;102144.47;;;9.99;100.00
58955;BME280;45815;52.334;5.024;2023-05-16T05:55:19;102147.94;;;9.98;100.00
58955;BME280;45815;52.334;5.024;2023-05-16T05:57:45;102168.00;;;9.97;100.00
58955;BME280;45815;52.334;5.024;2023-05-16T06:00:10;102151.47;;;9.98;100.00
58955;BME280;45815;52.334;5.024;2023-05-16T06:02:36;102152.47;;;10.02;100.00
58955;BME280;45815;52.334;5.024;2023-05-16T06:05:02;102154.28;;;10.03;100.00
58955;BME280;45815;52.334;5.024;2023-05-16T06:07:27;102150.69;;;10.01;100.00
58955;BME280;45815;52.334;5.024;2023-05-16T06:09:52;102159.41;;;10.00;100.00
58955;BME280;45815;52.334;5.024;2023-05-16T06:12:18;102155.25;;;10.05;100.00
58955;BME280;45815;52.334;5.024;2023-05-16T06:14:43;102155.38;;;10.08;100.00
58955;BME280;45815;52.334;5.024;2023-05-16T06:17:08;102160.03;;;10.15;100.00
58955;BME280;45815;52.334;5.024;2023-05-16T06:19:34;102167.31;;;10.22;100.00
58955;BME280;45815;52.334;5.024;2023-05-16T06:21:59;102158.75;;;10.26;100.00
58955;BME280;45815;52.334;5.024;2023-05-16T06:24:25;102161.31;;;10.25;100.00
58955;BME280;45815;52.334;5.024;2023-05-16T06:26:50;102171.22;;;10.30;100.00
58955;BME280;45815;52.334;5.024;2023-05-16T06:29:16;102164.41;;;10.35;100.00
58955;BME280;45815;52.334;5.024;2023-05-16T06:31:42;102154.16;;;10.42;100.00
58955;BME280;45815;52.334;5.024;2023-05-16T06:34:07;102158.25;;;10.56;100.00
58955;BME280;45815;52.334;5.024;2023-05-16T06:36:33;102170.81;;;10.63;100.00
58955;BME280;45815;52.334;5.024;2023-05-16T06:38:58;102173.72;;;10.71;100.00
58955;BME280;45815;52.334;5.024;2023-05-16T06:41:24;102167.44;;;10.67;100.00
58955;BME280;45815;52.334;5.024;2023-05-16T06:43:50;102168.59;;;10.74;100.00
58955;BME280;45815;52.334;5.024;2023-05-16T06:46:16;102175.81;;;10.80;100.00
58955;BME280;45815;52.334;5.024;2023-05-16T06:48:42;102160.88;;;10.78;100.00
58955;BME280;45815;52.334;5.024;2023-05-16T06:51:07;102173.41;;;10.86;100.00
58955;BME280;45815;52.334;5.024;2023-05-16T06:53:32;102170.50;;;11.01;100.00
58955;BME280;45815;52.334;5.024;2023-05-16T06:55:58;102177.22;;;11.16;100.00
58955;BME280;45815;52.334;5.024;2023-05-16T06:58:23;102174.84;;;11.23;100.00
58955;BME280;45815;52.334;5.024;2023-05-16T07:00:49;102182.97;;;11.29;100.00
58955;BME280;45815;52.334;5.024;2023-05-16T07:03:15;102182.38;;;11.36;100.00
58955;BME280;45815;52.334;5.024;2023-05-16T07:05:40;102165.75;;;11.37;100.00
58955;BME280;45815;52.334;5.024;2023-05-16T07:08:08;102184.13;;;11.37;100.00
58955;BME280;45815;52.334;5.024;2023-05-16T07:10:34;102193.84;;;11.38;100.00
58955;BME280;45815;52.334;5.024;2023-05-16T07:12:59;102188.09;;;11.26;100.00
58955;BME280;45815;52.334;5.024;2023-05-16T07:15:25;102182.81;;;11.24;100.00
58955;BME280;45815;52.334;5.024;2023-05-16T07:17:51;102190.25;;;11.36;100.00
58955;BME280;45815;52.334;5.024;2023-05-16T07:20:16;102181.84;;;11.46;100.00
58955;BME280;45815;52.334;5.024;2023-05-16T07:22:42;102184.72;;;11.52;100.00
58955;BME280;45815;52.334;5.024;2023-05-16T07:25:07;102189.13;;;11.53;100.00
58955;BME280;45815;52.334;5.024;2023-05-16T07:27:38;102189.03;;;11.50;100.00
58955;BME280;45815;52.334;5.024;2023-05-16T07:30:09;102186.50;;;11.53;100.00
58955;BME280;45815;52.334;5.024;2023-05-16T07:32:34;102194.78;;;11.64;100.00
58955;BME280;45815;52.334;5.024;2023-05-16T07:35:00;102181.19;;;11.76;100.00
58955;BME280;45815;52.334;5.024;2023-05-16T07:37:25;102193.75;;;11.84;100.00
58955;BME280;45815;52.334;5.024;2023-05-16T07:39:50;102189.63;;;11.91;100.00
58955;BME280;45815;52.334;5.024;2023-05-16T07:42:16;102187.97;;;11.93;100.00
58955;BME280;45815;52.334;5.024;2023-05-16T07:44:41;102196.28;;;12.06;100.00
58955;BME280;45815;52.334;5.024;2023-05-16T07:47:06;102190.44;;;12.14;100.00
58955;BME280;45815;52.334;5.024;2023-05-16T07:49:32;102184.53;;;12.21;100.00
58955;BME280;45815;52.334;5.024;2023-05-16T07:51:57;102199.66;;;12.27;100.00
58955;BME280;45815;52.334;5.024;2023-05-16T07:54:23;102206.28;;;12.16;100.00
58955;BME280;45815;52.334;5.024;2023-05-16T07:56:48;102207.25;;;12.18;100.00
58955;BME280;45815;52.334;5.024;2023-05-16T07:59:13;102209.03;;;12.19;100.00
58955;BME280;45815;52.334;5.024;2023-05-16T08:01:39;102206.72;;;12.28;100.00
58955;BME280;45815;52.334;5.024;2023-05-16T08:04:04;102199.13;;;12.37;100.00
58955;BME280;45815;52.334;5.024;2023-05-16T08:06:30;102197.44;;;12.39;100.00
58955;BME280;45815;52.334;5.024;2023-05-16T08:08:55;102197.19;;;12.59;100.00
58955;BME280;45815;52.334;5.024;2023-05-16T08:11:21;102193.59;;;12.84;100.00
58955;BME280;45815;52.334;5.024;2023-05-16T08:13:47;102202.22;;;13.07;100.00
58955;BME280;45815;52.334;5.024;2023-05-16T08:16:12;102183.69;;;13.33;100.00
58955;BME280;45815;52.334;5.024;2023-05-16T08:18:38;102180.78;;;13.54;100.00
58955;BME280;45815;52.334;5.024;2023-05-16T08:21:03;102198.16;;;13.79;100.00
58955;BME280;45815;52.334;5.024;2023-05-16T08:23:29;102189.13;;;14.02;100.00
58955;BME280;45815;52.334;5.024;2023-05-16T08:25:54;102210.00;;;14.26;100.00
58955;BME280;45815;52.334;5.024;2023-05-16T08:28:20;102210.84;;;14.24;100.00
58955;BME280;45815;52.334;5.024;2023-05-16T08:30:45;102207.97;;;14.49;100.00
58955;BME280;45815;52.334;5.024;2023-05-16T08:33:11;102211.16;;;14.71;100.00
58955;BME280;45815;52.334;5.024;2023-05-16T08:35:41;102202.75;;;14.52;100.00
58955;BME280;45815;52.334;5.024;2023-05-16T08:38:07;102218.31;;;14.42;100.00
58955;BME280;45815;52.334;5.024;2023-05-16T08:40:32;102205.78;;;14.68;100.00
58955;BME280;45815;52.334;5.024;2023-05-16T08:42:58;102202.78;;;14.90;100.00
58955;BME280;45815;52.334;5.024;2023-05-16T08:45:23;102191.03;;;15.15;100.00
58955;BME280;45815;52.334;5.024;2023-05-16T08:47:53;102209.41;;;15.52;100.00
58955;BME280;45815;52.334;5.024;2023-05-16T08:50:20;102201.22;;;15.82;100.00
58955;BME280;45815;52.334;5.024;2023-05-16T08:52:46;102207.09;;;16.11;100.00
58955;BME280;45815;52.334;5.024;2023-05-16T08:55:12;102211.16;;;15.94;100.00
58955;BME280;45815;52.334;5.024;2023-05-16T08:57:39;102216.31;;;15.44;100.00
58955;BME280;45815;52.334;5.024;2023-05-16T09:00:06;102216.84;;;15.27;100.00
58955;BME280;45815;52.334;5.024;2023-05-16T09:02:42;102224.38;;;15.09;100.00
58955;BME280;45815;52.334;5.024;2023-05-16T09:05:11;102221.06;;;15.19;100.00
58955;BME280;45815;52.334;5.024;2023-05-16T09:07:36;102218.56;;;15.25;100.00
58955;BME280;45815;52.334;5.024;2023-05-16T09:10:03;102208.22;;;15.37;100.00
58955;BME280;45815;52.334;5.024;2023-05-16T09:12:31;102202.53;;;15.61;100.00
58955;BME280;45815;52.334;5.024;2023-05-16T09:14:57;102213.63;;;15.83;100.00
58955;BME280;45815;52.334;5.024;2023-05-16T09:17:22;102207.22;;;16.19;100.00
58955;BME280;45815;52.334;5.024;2023-05-16T09:19:48;102208.09;;;16.19;100.00
58955;BME280;45815;52.334;5.024;2023-05-16T09:22:17;102216.41;;;15.91;100.00
58955;BME280;45815;52.334;5.024;2023-05-16T09:24:44;102205.28;;;15.66;100.00
58955;BME280;45815;52.334;5.024;2023-05-16T09:27:11;102220.88;;;15.51;100.00
58955;BME280;45815;52.334;5.024;2023-05-16T09:29:39;102200.91;;;15.24;100.00
58955;BME280;45815;52.334;5.024;2023-05-16T09:32:11;102218.16;;;15.07;100.00
58955;BME280;45815;52.334;5.024;2023-05-16T09:34:47;102227.06;;;15.10;100.00
58955;BME280;45815;52.334;5.024;2023-05-16T09:37:14;102226.22;;;15.54;100.00
58955;BME280;45815;52.334;5.024;2023-05-16T09:39:50;102216.19;;;15.80;100.00
58955;BME280;45815;52.334;5.024;2023-05-16T09:42:17;102218.66;;;16.16;100.00
58955;BME280;45815;52.334;5.024;2023-05-16T09:44:48;102220.94;;;16.48;100.00
58955;BME280;45815;52.334;5.024;2023-05-16T09:47:14;102222.97;;;16.64;100.00
58955;BME280;45815;52.334;5.024;2023-05-16T09:49:42;102228.59;;;16.83;100.00
58955;BME280;45815;52.334;5.024;2023-05-16T09:52:08;102224.81;;;17.25;100.00
58955;BME280;45815;52.334;5.024;2023-05-16T09:54:34;102223.88;;;17.23;100.00
58955;BME280;45815;52.334;5.024;2023-05-16T09:57:00;102221.78;;;16.99;99.08
58955;BME280;45815;52.334;5.024;2023-05-16T09:59:28;102235.06;;;16.47;97.89
58955;BME280;45815;52.334;5.024;2023-05-16T10:01:56;102235.38;;;16.14;97.65
58955;BME280;45815;52.334;5.024;2023-05-16T10:04:23;102234.94;;;15.91;98.64
58955;BME280;45815;52.334;5.024;2023-05-16T10:06:50;102230.75;;;15.59;98.58
58955;BME280;45815;52.334;5.024;2023-05-16T10:09:17;102233.28;;;15.53;100.00
58955;BME280;45815;52.334;5.024;2023-05-16T10:11:43;102238.53;;;15.52;100.00
58955;BME280;45815;52.334;5.024;2023-05-16T10:14:10;102231.09;;;15.75;99.61
58955;BME280;45815;52.334;5.024;2023-05-16T10:16:36;102230.81;;;15.62;99.47
58955;BME280;45815;52.334;5.024;2023-05-16T10:19:02;102234.38;;;15.65;100.00
58955;BME280;45815;52.334;5.024;2023-05-16T10:21:28;102235.03;;;15.53;100.00
58955;BME280;45815;52.334;5.024;2023-05-16T10:23:57;102237.59;;;15.48;100.00
58955;BME280;45815;52.334;5.024;2023-05-16T10:26:24;102251.41;;;15.35;100.00
58955;BME280;45815;52.334;5.024;2023-05-16T10:28:51;102242.88;;;15.91;100.00
58955;BME280;45815;52.334;5.024;2023-05-16T10:31:17;102229.81;;;16.50;97.96
58955;BME280;45815;52.334;5.024;2023-05-16T10:33:42;102234.75;;;16.80;96.53
58955;BME280;45815;52.334;5.024;2023-05-16T10:36:09;102230.41;;;16.84;97.02
58955;BME280;45815;52.334;5.024;2023-05-16T10:38:36;102231.44;;;16.94;96.97
58955;BME280;45815;52.334;5.024;2023-05-16T10:41:02;102224.94;;;16.75;95.64
58955;BME280;45815;52.334;5.024;2023-05-16T10:43:29;102228.34;;;16.67;93.76
58955;BME280;45815;52.334;5.024;2023-05-16T10:46:08;102218.59;;;16.66;96.40
58955;BME280;45815;52.334;5.024;2023-05-16T10:48:38;102228.09;;;16.52;96.75
58955;BME280;45815;52.334;5.024;2023-05-16T10:53:51;102226.94;;;16.35;95.86
58955;BME280;45815;52.334;5.024;2023-05-16T10:56:22;102225.63;;;16.11;94.71
58955;BME280;45815;52.334;5.024;2023-05-16T10:58:48;102228.38;;;16.17;95.89
58955;BME280;45815;52.334;5.024;2023-05-16T11:01:27;102231.13;;;16.23;99.54
58955;BME280;45815;52.334;5.024;2023-05-16T11:06:32;102229.44;;;16.29;100.00
58955;BME280;45815;52.334;5.024;2023-05-16T11:16:48;102229.28;;;15.72;98.21
58955;BME280;45815;52.334;5.024;2023-05-16T11:24:32;102214.47;;;15.80;99.11
58955;BME280;45815;52.334;5.024;2023-05-16T11:26:59;102224.94;;;15.76;98.65
58955;BME280;45815;52.334;5.024;2023-05-16T11:29:33;102227.03;;;15.94;98.86
58955;BME280;45815;52.334;5.024;2023-05-16T11:32:01;102223.72;;;16.04;99.41
58955;BME280;45815;52.334;5.024;2023-05-16T11:34:29;102224.47;;;15.97;96.90
58955;BME280;45815;52.334;5.024;2023-05-16T11:36:54;102237.34;;;15.78;96.48
58955;BME280;45815;52.334;5.024;2023-05-16T11:39:21;102243.91;;;15.99;95.57
58955;BME280;45815;52.334;5.024;2023-05-16T11:41:49;102236.13;;;16.08;93.45
58955;BME280;45815;52.334;5.024;2023-05-16T11:44:15;102239.84;;;16.16;94.28
58955;BME280;45815;52.334;5.024;2023-05-16T11:46:41;102231.50;;;16.45;94.82
58955;BME280;45815;52.334;5.024;2023-05-16T11:49:08;102234.75;;;16.29;93.34
58955;BME280;45815;52.334;5.024;2023-05-16T11:51:37;102240.00;;;16.25;92.58
58955;BME280;45815;52.334;5.024;2023-05-16T11:54:02;102227.78;;;16.34;92.70
58955;BME280;45815;52.334;5.024;2023-05-16T11:56:30;102240.28;;;16.42;92.97
58955;BME280;45815;52.334;5.024;2023-05-16T11:58:56;102235.66;;;16.81;91.25
58955;BME280;45815;52.334;5.024;2023-05-16T12:01:23;102240.66;;;16.62;91.42
58955;BME280;45815;52.334;5.024;2023-05-16T12:03:55;102238.13;;;16.70;91.76
58955;BME280;45815;52.334;5.024;2023-05-16T12:06:22;102220.94;;;17.01;89.94
58955;BME280;45815;52.334;5.024;2023-05-16T12:08:50;102230.25;;;17.36;86.50
58955;BME280;45815;52.334;5.024;2023-05-16T12:11:16;102235.81;;;17.54;86.78
58955;BME280;45815;52.334;5.024;2023-05-16T12:13:41;102232.81;;;17.97;88.87
58955;BME280;45815;52.334;5.024;2023-05-16T12:16:07;102230.31;;;18.17;88.92
58955;BME280;45815;52.334;5.024;2023-05-16T12:18:32;102228.78;;;18.39;87.92
58955;BME280;45815;52.334;5.024;2023-05-16T12:20:58;102235.75;;;18.24;88.87
58955;BME280;45815;52.334;5.024;2023-05-16T12:23:25;102233.91;;;18.20;85.96
58955;BME280;45815;52.334;5.024;2023-05-16T12:25:51;102225.78;;;18.03;88.02
58955;BME280;45815;52.334;5.024;2023-05-16T12:28:19;102237.47;;;18.21;87.00
58955;BME280;45815;52.334;5.024;2023-05-16T12:30:45;102230.72;;;18.58;89.47
58955;BME280;45815;52.334;5.024;2023-05-16T12:33:13;102223.50;;;18.45;89.42
58955;BME280;45815;52.334;5.024;2023-05-16T12:35:41;102242.59;;;18.02;87.96
58955;BME280;45815;52.334;5.024;2023-05-16T12:38:09;102240.16;;;17.47;86.89
58955;BME280;45815;52.334;5.024;2023-05-16T12:40:39;102238.00;;;17.19;85.50
58955;BME280;45815;52.334;5.024;2023-05-16T12:45:37;102239.72;;;16.62;89.90
58955;BME280;45815;52.334;5.024;2023-05-16T12:48:04;102236.84;;;16.46;89.90
58955;BME280;45815;52.334;5.024;2023-05-16T12:50:32;102245.63;;;16.44;88.69
58955;BME280;45815;52.334;5.024;2023-05-16T12:52:58;102222.59;;;16.40;90.61
58955;BME280;45815;52.334;5.024;2023-05-16T12:55:24;102233.38;;;16.51;89.50
58955;BME280;45815;52.334;5.024;2023-05-16T12:57:51;102229.88;;;16.53;90.10
58955;BME280;45815;52.334;5.024;2023-05-16T13:00:18;102227.25;;;16.53;89.32
58955;BME280;45815;52.334;5.024;2023-05-16T13:02:44;102232.63;;;16.59;91.18
58955;BME280;45815;52.334;5.024;2023-05-16T13:05:10;102233.59;;;16.64;91.54
58955;BME280;45815;52.334;5.024;2023-05-16T13:07:36;102239.81;;;16.66;90.29
58955;BME280;45815;52.334;5.024;2023-05-16T13:10:06;102242.47;;;16.66;90.46
58955;BME280;45815;52.334;5.024;2023-05-16T13:12:32;102238.06;;;16.68;89.26
58955;BME280;45815;52.334;5.024;2023-05-16T13:14:57;102239.00;;;16.71;88.98
58955;BME280;45815;52.334;5.024;2023-05-16T13:17:22;102239.88;;;16.70;88.57
58955;BME280;45815;52.334;5.024;2023-05-16T13:19:48;102233.13;;;16.90;88.79